createdAt,value
2022-11-15T00:00:52.944Z,22.35
2022-11-15T00:03:25.411Z,26.85
2022-11-15T00:05:52.882Z,28.25
2022-11-15T00:08:19.609Z,31.42
2022-11-15T00:11:00.430Z,25.98
2022-11-15T00:13:28.707Z,28.45
2022-11-15T00:15:59.043Z,27.35
2022-11-15T00:18:25.479Z,32.13
2022-11-15T00:20:52.878Z,33.83
2022-11-15T00:23:20.113Z,30.00
2022-11-15T00:25:46.691Z,32.00
2022-11-15T00:28:13.524Z,29.13
2022-11-15T00:30:40.435Z,29.02
2022-11-15T00:33:10.701Z,27.42
2022-11-15T00:35:37.538Z,32.50
2022-11-15T00:38:03.971Z,31.25
2022-11-15T00:40:30.679Z,29.05
2022-11-15T00:42:58.141Z,32.47
2022-11-15T00:45:26.207Z,30.52
2022-11-15T00:47:52.959Z,30.50
2022-11-15T00:50:20.091Z,31.15
2022-11-15T00:52:48.324Z,34.10
2022-11-15T00:55:17.451Z,30.33
2022-11-15T00:57:46.217Z,32.25
2022-11-15T01:00:13.149Z,30.42
2022-11-15T01:02:40.699Z,32.25
2022-11-15T01:05:08.976Z,34.40
2022-11-15T01:07:37.527Z,32.42
2022-11-15T01:10:05.291Z,34.33
2022-11-15T01:12:34.372Z,35.78
2022-11-15T01:15:01.191Z,31.67
2022-11-15T01:17:31.829Z,38.75
2022-11-15T01:19:58.779Z,41.47
2022-11-15T01:22:25.721Z,31.98
2022-11-15T01:24:52.347Z,33.78
2022-11-15T01:27:19.190Z,28.65
2022-11-15T01:29:45.638Z,43.15
2022-11-15T01:32:12.475Z,46.42
2022-11-15T01:37:07.908Z,42.67
2022-11-15T01:39:34.509Z,50.35
2022-11-15T01:42:01.276Z,44.70
2022-11-15T01:44:42.963Z,56.13
2022-11-15T01:47:18.552Z,47.88
2022-11-15T01:50:10.752Z,46.53
2022-11-15T01:52:40.592Z,55.78
2022-11-15T01:55:17.208Z,56.90
2022-11-15T01:57:50.034Z,57.95
2022-11-15T02:00:17.348Z,55.20
2022-11-15T02:02:43.981Z,53.92
2022-11-15T02:05:11.805Z,54.85
2022-11-15T02:07:39.047Z,55.50
2022-11-15T02:10:12.587Z,50.25
2022-11-15T02:12:42.502Z,53.65
2022-11-15T02:15:10.368Z,47.47
2022-11-15T02:18:00.140Z,51.72
2022-11-15T02:20:44.408Z,52.13
2022-11-15T02:23:48.319Z,48.38
2022-11-15T02:26:52.441Z,49.00
2022-11-15T02:30:03.363Z,52.25
2022-11-15T02:32:46.846Z,40.40
2022-11-15T02:35:29.493Z,37.35
2022-11-15T02:38:13.864Z,50.28
2022-11-15T02:40:43.323Z,53.17
2022-11-15T02:43:36.715Z,43.85
2022-11-15T02:46:09.939Z,48.80
2022-11-15T02:48:37.049Z,48.47
2022-11-15T02:51:04.281Z,44.65
2022-11-15T02:53:31.060Z,40.97
2022-11-15T02:55:58.245Z,49.17
2022-11-15T02:58:44.603Z,35.40
2022-11-15T03:01:23.512Z,45.33
2022-11-15T03:03:57.040Z,42.08
2022-11-15T03:06:30.295Z,55.15
2022-11-15T03:09:13.605Z,47.13
2022-11-15T03:11:44.849Z,71.88
2022-11-15T03:14:33.107Z,56.08
2022-11-15T03:19:38.564Z,53.38
2022-11-15T03:22:08.171Z,41.58
2022-11-15T03:24:38.215Z,59.33
2022-11-15T03:27:07.927Z,65.57
2022-11-15T03:29:40.560Z,54.50
2022-11-15T03:32:18.813Z,67.05
2022-11-15T03:34:48.448Z,57.10
2022-11-15T03:37:17.639Z,62.38
2022-11-15T03:39:44.590Z,71.15
2022-11-15T03:42:26.526Z,60.50
2022-11-15T03:44:59.722Z,59.50
2022-11-15T03:47:29.393Z,60.95
2022-11-15T03:50:08.472Z,66.13
2022-11-15T03:52:35.653Z,41.78
2022-11-15T03:55:04.623Z,74.25
2022-11-15T03:57:31.025Z,62.03
2022-11-15T03:59:57.474Z,80.80
2022-11-15T04:02:24.049Z,63.83
2022-11-15T04:04:50.488Z,65.50
2022-11-15T04:07:16.896Z,68.32
2022-11-15T04:10:02.425Z,69.28
2022-11-15T04:12:38.456Z,61.28
2022-11-15T04:15:08.990Z,56.45
2022-11-15T04:17:41.209Z,59.05
2022-11-15T04:20:30.168Z,60.97
2022-11-15T04:23:16.566Z,54.72
2022-11-15T04:25:44.659Z,54.53
2022-11-15T04:28:11.939Z,30.08
2022-11-15T04:30:39.039Z,39.95
2022-11-15T04:33:05.524Z,59.70
2022-11-15T04:35:32.119Z,45.70
2022-11-15T04:37:59.514Z,50.85
2022-11-15T04:40:25.949Z,60.55
2022-11-15T04:42:52.391Z,48.80
2022-11-15T04:45:18.940Z,48.83
2022-11-15T04:47:46.247Z,41.90
2022-11-15T04:50:14.300Z,46.90
2022-11-15T04:52:43.029Z,46.92
2022-11-15T04:55:12.366Z,52.50
2022-11-15T04:57:38.987Z,41.35
2022-11-15T05:00:08.048Z,41.50
2022-11-15T05:02:52.826Z,54.90
2022-11-15T05:05:19.261Z,53.80
2022-11-15T05:07:47.352Z,56.20
2022-11-15T05:10:13.840Z,68.20
2022-11-15T05:12:40.266Z,50.53
2022-11-15T05:15:07.302Z,58.90
2022-11-15T05:17:33.846Z,59.17
2022-11-15T05:20:00.329Z,54.20
2022-11-15T05:22:29.582Z,56.90
2022-11-15T05:24:55.968Z,55.50
2022-11-15T05:27:22.569Z,50.28
2022-11-15T05:29:49.051Z,58.10
2022-11-15T05:32:15.839Z,48.45
2022-11-15T05:34:42.261Z,56.92
2022-11-15T05:37:08.643Z,45.75
2022-11-15T05:39:35.081Z,44.08
2022-11-15T05:42:08.736Z,50.17
2022-11-15T05:44:37.812Z,60.28
2022-11-15T05:47:09.701Z,55.95
2022-11-15T05:49:39.483Z,53.35
2022-11-15T05:52:11.121Z,47.90
2022-11-15T05:54:38.502Z,44.35
2022-11-15T05:57:06.824Z,47.72
2022-11-15T05:59:34.496Z,48.63
2022-11-15T06:02:01.430Z,49.17
2022-11-15T06:04:27.899Z,49.92
2022-11-15T06:06:54.639Z,43.83
2022-11-15T06:09:24.145Z,35.88
2022-11-15T06:11:50.571Z,43.97
2022-11-15T06:14:17.040Z,48.10
2022-11-15T06:16:43.525Z,41.08
2022-11-15T06:19:09.907Z,46.20
2022-11-15T06:21:36.420Z,36.08
2022-11-15T06:24:03.011Z,36.67
2022-11-15T06:26:29.467Z,37.60
2022-11-15T06:28:58.408Z,42.60
2022-11-15T06:31:24.874Z,40.97
2022-11-15T06:33:51.265Z,44.72
2022-11-15T06:36:18.444Z,38.00
2022-11-15T06:38:45.498Z,44.72
2022-11-15T06:41:12.620Z,45.13
2022-11-15T06:43:39.288Z,36.67
2022-11-15T06:46:06.765Z,39.10
2022-11-15T06:48:34.217Z,41.47
2022-11-15T06:51:01.991Z,35.20
2022-11-15T06:53:29.146Z,34.08
2022-11-15T06:55:59.578Z,37.35
2022-11-15T06:58:26.072Z,43.42
2022-11-15T07:00:52.603Z,42.92
2022-11-15T07:03:19.085Z,40.13
2022-11-15T07:05:56.623Z,38.17
2022-11-15T07:08:24.476Z,40.45
2022-11-15T07:10:51.296Z,41.83
2022-11-15T07:13:17.735Z,40.53
2022-11-15T07:15:44.418Z,33.50
2022-11-15T07:18:10.811Z,44.20
2022-11-15T07:20:37.284Z,39.97
2022-11-15T07:23:05.246Z,38.28
2022-11-15T07:25:32.233Z,36.53
2022-11-15T07:27:59.723Z,32.90
2022-11-15T07:30:27.184Z,35.47
2022-11-15T07:32:58.076Z,36.47
2022-11-15T07:35:25.535Z,37.53
2022-11-15T07:37:56.033Z,40.37
2022-11-15T07:40:22.978Z,43.30
2022-11-15T07:42:55.904Z,39.47
2022-11-15T07:45:24.343Z,39.97
2022-11-15T07:50:18.036Z,38.15
2022-11-15T07:52:44.675Z,38.75
2022-11-15T07:55:11.635Z,40.20
2022-11-15T07:57:38.381Z,34.83
2022-11-15T08:00:06.508Z,40.38
2022-11-15T08:02:33.084Z,37.35
2022-11-15T08:05:00.223Z,37.20
2022-11-15T08:07:30.029Z,35.63
2022-11-15T08:09:56.523Z,23.98
2022-11-15T08:12:23.513Z,37.15
2022-11-15T08:14:50.376Z,38.72
2022-11-15T08:17:16.756Z,38.20
2022-11-15T08:19:43.292Z,40.63
2022-11-15T08:22:09.829Z,34.50
2022-11-15T08:24:36.219Z,33.00
2022-11-15T08:27:02.745Z,37.33
2022-11-15T08:29:29.222Z,31.77
2022-11-15T08:31:57.072Z,31.90
2022-11-15T08:34:24.129Z,38.60
2022-11-15T08:36:50.559Z,38.45
2022-11-15T08:39:16.962Z,34.60
2022-11-15T08:41:43.382Z,37.22
2022-11-15T08:44:09.804Z,31.75
2022-11-15T08:46:36.254Z,33.97
2022-11-15T08:49:02.662Z,34.65
2022-11-15T08:51:29.148Z,28.05
2022-11-15T08:53:55.573Z,30.90
2022-11-15T08:56:22.070Z,28.80
2022-11-15T08:58:48.573Z,30.05
2022-11-15T09:01:21.103Z,33.03
2022-11-15T09:03:47.746Z,27.08
2022-11-15T09:06:14.544Z,29.98
2022-11-15T09:08:47.412Z,22.63
2022-11-15T09:11:21.096Z,28.40
2022-11-15T09:13:47.528Z,31.83
2022-11-15T09:16:14.088Z,34.38
2022-11-15T09:18:40.589Z,32.08
2022-11-15T09:21:07.089Z,26.13
2022-11-15T09:23:33.703Z,29.15
2022-11-15T09:26:05.277Z,25.33
2022-11-15T09:28:33.035Z,23.90
2022-11-15T09:31:01.791Z,24.60
2022-11-15T09:36:08.303Z,16.05
2022-11-15T09:38:35.757Z,22.23
2022-11-15T09:41:27.411Z,25.35
2022-11-15T09:44:07.053Z,24.02
2022-11-15T09:46:39.111Z,22.42
2022-11-15T09:49:07.357Z,22.98
2022-11-15T09:51:37.440Z,20.40
2022-11-15T09:56:53.867Z,19.95
2022-11-15T09:59:29.267Z,19.70
2022-11-15T10:02:30.367Z,19.05
2022-11-15T10:05:00.180Z,16.40
2022-11-15T10:07:35.266Z,19.80
2022-11-15T10:10:37.236Z,19.33
2022-11-15T10:13:04.852Z,20.40
2022-11-15T10:15:32.373Z,18.02
2022-11-15T10:18:18.982Z,15.90
2022-11-15T10:20:51.558Z,13.68
2022-11-15T10:23:21.425Z,13.65
2022-11-15T10:25:48.578Z,13.50
2022-11-15T10:28:28.585Z,14.95
2022-11-15T10:30:57.504Z,13.23
2022-11-15T10:33:37.201Z,10.57
2022-11-15T10:36:09.581Z,15.73
2022-11-15T10:38:54.329Z,11.30
2022-11-15T10:41:28.389Z,13.45
2022-11-15T10:44:21.953Z,10.80
2022-11-15T10:46:55.698Z,11.32
2022-11-15T10:49:29.774Z,12.27
2022-11-15T10:52:17.452Z,12.13
2022-11-15T10:54:50.447Z,11.32
2022-11-15T10:57:20.116Z,8.80
2022-11-15T10:59:50.507Z,12.52
2022-11-15T11:02:34.295Z,11.43
2022-11-15T11:05:01.709Z,10.13
2022-11-15T11:07:34.179Z,14.20
2022-11-15T11:10:22.855Z,9.88
2022-11-15T11:12:52.353Z,10.65
2022-11-15T11:15:19.472Z,8.35
2022-11-15T11:18:13.161Z,8.98
2022-11-15T11:20:45.850Z,8.85
2022-11-15T11:23:25.829Z,8.93
2022-11-15T11:26:17.376Z,7.38
2022-11-15T11:28:46.871Z,8.70
2022-11-15T11:31:33.092Z,8.90
2022-11-15T11:34:16.833Z,5.90
2022-11-15T11:37:02.622Z,8.65
2022-11-15T11:40:09.168Z,7.20
2022-11-15T11:42:44.637Z,6.25
2022-11-15T11:45:10.969Z,6.93
2022-11-15T11:47:45.389Z,7.47
2022-11-15T11:50:26.057Z,8.95
2022-11-15T11:53:12.379Z,6.03
2022-11-15T11:55:46.728Z,5.65
2022-11-15T11:58:19.233Z,5.65
2022-11-15T12:01:12.758Z,6.85
2022-11-15T12:03:44.894Z,6.13
2022-11-15T12:06:25.558Z,3.88
2022-11-15T12:09:02.099Z,6.50
2022-11-15T12:11:57.643Z,5.43
2022-11-15T12:14:37.045Z,4.53
2022-11-15T12:17:03.797Z,4.75
2022-11-15T12:19:31.619Z,5.03
2022-11-15T12:22:03.646Z,4.50
2022-11-15T12:24:43.929Z,5.57
2022-11-15T12:27:34.296Z,3.60
2022-11-15T12:30:10.225Z,5.78
2022-11-15T12:32:39.322Z,4.88
2022-11-15T12:35:24.129Z,6.28
2022-11-15T12:37:53.105Z,6.68
2022-11-15T12:40:25.558Z,4.80
2022-11-15T12:42:59.392Z,3.95
2022-11-15T12:45:33.317Z,5.75
2022-11-15T12:48:17.970Z,4.05
2022-11-15T12:50:58.940Z,2.95
2022-11-15T12:53:28.605Z,5.07
2022-11-15T12:56:13.281Z,5.03
2022-11-15T12:58:48.866Z,6.50
2022-11-15T13:01:33.905Z,4.70
2022-11-15T13:04:22.378Z,5.90
2022-11-15T13:06:52.259Z,3.80
2022-11-15T13:09:36.854Z,4.22
2022-11-15T13:12:22.581Z,5.60
2022-11-15T13:14:57.182Z,7.43
2022-11-15T13:17:30.879Z,5.05
2022-11-15T13:20:12.647Z,2.53
2022-11-15T13:22:52.069Z,7.05
2022-11-15T13:25:39.698Z,5.28
2022-11-15T13:28:15.114Z,2.60
2022-11-15T13:30:53.967Z,1.40
2022-11-15T13:33:20.354Z,2.53
2022-11-15T13:35:50.284Z,4.50
2022-11-15T13:38:38.839Z,3.10
2022-11-15T13:41:17.381Z,1.65
2022-11-15T13:43:43.948Z,2.92
2022-11-15T13:46:15.142Z,5.25
2022-11-15T13:48:43.303Z,3.33
2022-11-15T13:51:18.748Z,1.30
2022-11-15T13:54:08.566Z,4.22
2022-11-15T13:56:43.519Z,3.53
2022-11-15T13:59:15.571Z,3.72
2022-11-15T14:01:44.181Z,2.88
2022-11-15T14:04:16.408Z,1.85
2022-11-15T14:06:52.281Z,2.67
2022-11-15T14:09:37.894Z,4.95
2022-11-15T14:12:30.908Z,2.35
2022-11-15T14:14:58.933Z,3.00
2022-11-15T14:17:31.520Z,4.85
2022-11-15T14:19:58.777Z,4.95
2022-11-15T14:22:32.056Z,1.90
2022-11-15T14:25:14.364Z,5.70
2022-11-15T14:27:42.945Z,2.72
2022-11-15T14:30:19.185Z,3.95
2022-11-15T14:32:48.795Z,5.90
2022-11-15T14:35:19.032Z,3.88
2022-11-15T14:37:46.011Z,6.43
2022-11-15T14:40:18.237Z,6.28
2022-11-15T14:42:46.250Z,3.08
2022-11-15T14:45:18.065Z,4.30
2022-11-15T14:47:45.812Z,5.80
2022-11-15T14:50:17.465Z,2.58
2022-11-15T14:52:44.424Z,8.93
2022-11-15T14:55:36.380Z,4.68
2022-11-15T14:58:04.333Z,6.15
2022-11-15T15:00:35.393Z,6.47
2022-11-15T15:03:03.014Z,8.88
2022-11-15T15:05:36.825Z,3.55
2022-11-15T15:08:04.605Z,5.72
2022-11-15T15:10:44.562Z,8.77
2022-11-15T15:13:22.385Z,6.30
2022-11-15T15:15:50.426Z,4.75
2022-11-15T15:18:17.525Z,5.55
2022-11-15T15:20:46.733Z,4.32
2022-11-15T15:23:19.874Z,11.20
2022-11-15T15:25:49.149Z,15.52
2022-11-15T15:28:16.176Z,6.18
2022-11-15T15:30:42.645Z,10.75
2022-11-15T15:33:09.556Z,6.13
2022-11-15T15:35:36.268Z,5.63
2022-11-15T15:38:03.439Z,6.78
2022-11-15T15:40:32.797Z,3.45
2022-11-15T15:42:59.802Z,4.80
2022-11-15T15:45:28.165Z,5.60
2022-11-15T15:50:23.638Z,4.75
2022-11-15T15:52:52.160Z,3.90
2022-11-15T15:55:18.964Z,3.90
2022-11-15T15:57:45.688Z,6.53
2022-11-15T16:00:13.335Z,6.03
2022-11-15T16:02:41.409Z,7.05
2022-11-15T16:05:09.462Z,6.97
2022-11-15T16:07:35.959Z,5.57
2022-11-15T16:10:17.907Z,6.80
2022-11-15T16:12:45.104Z,4.80
2022-11-15T16:15:11.536Z,6.22
2022-11-15T16:17:45.480Z,4.57
2022-11-15T16:20:22.503Z,6.10
2022-11-15T16:22:49.071Z,5.38
2022-11-15T16:25:18.400Z,6.45
2022-11-15T16:27:45.900Z,4.72
2022-11-15T16:30:16.823Z,4.37
2022-11-15T16:32:43.790Z,4.85
2022-11-15T16:35:17.451Z,5.65
2022-11-15T16:37:46.559Z,3.85
2022-11-15T16:40:31.300Z,3.35
2022-11-15T16:42:59.860Z,2.22
2022-11-15T16:45:29.126Z,5.22
2022-11-15T16:47:56.509Z,2.45
2022-11-15T16:50:25.944Z,5.38
2022-11-15T16:52:54.001Z,4.30
2022-11-15T16:55:21.804Z,4.10
2022-11-15T16:57:48.435Z,4.90
2022-11-15T17:00:16.611Z,4.05
2022-11-15T17:02:45.117Z,3.65
2022-11-15T17:05:17.259Z,4.47
2022-11-15T17:07:53.963Z,5.80
2022-11-15T17:10:22.907Z,3.97
2022-11-15T17:12:50.388Z,9.00
2022-11-15T17:15:17.231Z,3.10
2022-11-15T17:17:44.588Z,5.72
2022-11-15T17:20:16.831Z,6.43
2022-11-15T17:22:43.359Z,3.78
2022-11-15T17:25:10.232Z,4.65
2022-11-15T17:27:36.888Z,5.25
2022-11-15T17:30:04.383Z,7.38
2022-11-15T17:32:30.822Z,7.17
2022-11-15T17:34:57.277Z,4.28
2022-11-15T17:37:23.790Z,6.35
2022-11-15T17:39:50.239Z,5.93
2022-11-15T17:42:16.600Z,3.70
2022-11-15T17:44:43.023Z,4.57
2022-11-15T17:47:09.420Z,4.45
2022-11-15T17:49:39.321Z,5.78
2022-11-15T17:52:05.881Z,4.07
2022-11-15T17:54:32.285Z,4.72
2022-11-15T17:56:58.827Z,4.45
2022-11-15T17:59:25.211Z,4.20
2022-11-15T18:01:53.739Z,6.85
2022-11-15T18:04:20.624Z,5.72
2022-11-15T18:06:47.114Z,4.80
2022-11-15T18:09:13.681Z,6.18
2022-11-15T18:11:41.857Z,5.80
2022-11-15T18:14:12.482Z,8.80
2022-11-15T18:16:40.257Z,7.70
2022-11-15T18:19:11.354Z,12.80
2022-11-15T18:21:55.952Z,6.20
2022-11-15T18:24:24.151Z,3.55
2022-11-15T18:26:50.609Z,4.90
2022-11-15T18:29:17.527Z,3.53
2022-11-15T18:31:47.688Z,4.00
2022-11-15T18:34:14.414Z,4.90
2022-11-15T18:36:41.253Z,7.28
2022-11-15T18:39:07.672Z,6.57
2022-11-15T18:41:34.590Z,3.47
2022-11-15T18:44:02.260Z,3.03
2022-11-15T18:46:31.782Z,4.25
2022-11-15T18:48:59.755Z,8.93
2022-11-15T18:51:29.825Z,5.22
2022-11-15T18:53:58.261Z,6.03
2022-11-15T18:58:54.860Z,6.80
2022-11-15T19:01:26.270Z,4.63
2022-11-15T19:03:55.079Z,4.80
2022-11-15T19:06:26.607Z,3.65
2022-11-15T19:08:56.214Z,8.50
2022-11-15T19:11:28.789Z,11.30
2022-11-15T19:13:59.630Z,8.35
2022-11-15T19:16:27.563Z,8.90
2022-11-15T19:18:58.381Z,6.68
2022-11-15T19:21:26.139Z,7.85
2022-11-15T19:23:54.144Z,5.97
2022-11-15T19:26:22.782Z,7.30
2022-11-15T19:29:10.281Z,9.32
2022-11-15T19:31:37.517Z,9.27
2022-11-15T19:34:05.051Z,8.52
2022-11-15T19:36:34.828Z,5.77
2022-11-15T19:39:08.360Z,5.47
2022-11-15T19:41:36.856Z,10.55
2022-11-15T19:46:30.550Z,7.72
2022-11-15T19:48:56.967Z,7.18
2022-11-15T19:51:25.567Z,7.97
2022-11-15T19:53:53.768Z,6.90
2022-11-15T19:56:21.323Z,5.88
2022-11-15T19:58:52.504Z,7.05
2022-11-15T20:01:24.740Z,5.88
2022-11-15T20:03:54.537Z,7.47
2022-11-15T20:06:25.522Z,5.28
2022-11-15T20:08:52.251Z,7.72
2022-11-15T20:11:22.200Z,8.40
2022-11-15T20:13:48.608Z,7.53
2022-11-15T20:16:21.121Z,5.50
2022-11-15T20:18:49.029Z,5.55
2022-11-15T20:21:15.975Z,8.07
2022-11-15T20:23:43.361Z,5.72
2022-11-15T20:26:11.787Z,6.60
2022-11-15T20:28:39.791Z,11.63
2022-11-15T20:31:07.839Z,9.50
2022-11-15T20:33:34.702Z,17.50
2022-11-15T20:36:06.466Z,11.48
2022-11-15T20:38:34.509Z,5.85
2022-11-15T20:41:01.678Z,7.75
2022-11-15T20:43:31.035Z,8.57
2022-11-15T20:46:00.553Z,6.57
2022-11-15T20:48:27.223Z,6.28
2022-11-15T20:51:06.001Z,7.47
2022-11-15T20:53:33.637Z,6.40
2022-11-15T20:56:07.891Z,9.02
2022-11-15T20:58:35.920Z,7.97
2022-11-15T21:01:03.126Z,6.85
2022-11-15T21:03:29.765Z,6.50
2022-11-15T21:05:56.368Z,7.43
2022-11-15T21:08:23.060Z,8.40
2022-11-15T21:11:13.226Z,5.78
2022-11-15T21:13:43.213Z,9.32
2022-11-15T21:16:09.919Z,8.05
2022-11-15T21:18:36.628Z,8.38
2022-11-15T21:21:05.421Z,7.75
2022-11-15T21:23:32.404Z,8.23
2022-11-15T21:26:01.734Z,10.82
2022-11-15T21:28:28.476Z,6.68
2022-11-15T21:31:01.064Z,8.75
2022-11-15T21:33:29.426Z,7.45
2022-11-15T21:35:56.923Z,10.15
2022-11-15T21:38:24.571Z,6.10
2022-11-15T21:40:51.941Z,6.65
2022-11-15T21:43:20.556Z,6.72
2022-11-15T21:46:01.301Z,8.05
2022-11-15T21:48:32.825Z,12.70
2022-11-15T21:51:03.091Z,8.35
2022-11-15T21:53:31.704Z,10.63
2022-11-15T21:56:02.986Z,9.55
2022-11-15T21:58:31.094Z,11.57
2022-11-15T22:01:17.079Z,8.98
2022-11-15T22:03:43.565Z,10.48
2022-11-15T22:06:16.104Z,8.93
2022-11-15T22:08:44.836Z,11.55
2022-11-15T22:11:11.226Z,8.40
2022-11-15T22:13:37.876Z,8.95
2022-11-15T22:16:04.468Z,9.77
2022-11-15T22:18:31.091Z,11.55
2022-11-15T22:21:04.761Z,11.48
2022-11-15T22:23:32.925Z,11.35
2022-11-15T22:25:59.932Z,9.05
2022-11-15T22:28:26.805Z,10.32
2022-11-15T22:30:54.466Z,10.15
2022-11-15T22:33:23.776Z,13.13
2022-11-15T22:35:50.589Z,13.68
2022-11-15T22:38:17.332Z,11.40
2022-11-15T22:40:44.540Z,11.38
2022-11-15T22:43:13.352Z,15.52
2022-11-15T22:45:48.607Z,11.95
2022-11-15T22:48:16.199Z,12.38
2022-11-15T22:50:43.703Z,12.90
2022-11-15T22:53:10.404Z,12.07
2022-11-15T22:55:43.162Z,13.90
2022-11-15T22:58:09.803Z,12.68
2022-11-15T23:00:37.064Z,11.80
2022-11-15T23:03:04.094Z,12.57
2022-11-15T23:05:30.477Z,12.82
2022-11-15T23:07:56.911Z,15.13
2022-11-15T23:10:42.012Z,12.40
2022-11-15T23:13:18.241Z,13.57
2022-11-15T23:16:09.005Z,12.98
2022-11-15T23:18:39.077Z,13.35
2022-11-15T23:21:46.250Z,14.35
2022-11-15T23:24:14.288Z,12.10
2022-11-15T23:26:41.630Z,13.30
2022-11-15T23:29:09.970Z,15.40
2022-11-15T23:32:01.988Z,13.00
2022-11-15T23:34:30.851Z,15.38
2022-11-15T23:36:57.747Z,12.98
2022-11-15T23:39:24.153Z,14.02
2022-11-15T23:41:52.362Z,14.45
2022-11-15T23:44:19.677Z,16.33
2022-11-15T23:46:46.975Z,15.00
2022-11-15T23:49:13.572Z,13.50
2022-11-15T23:51:40.885Z,12.95
2022-11-15T23:56:36.491Z,13.65
2022-11-15T23:59:05.696Z,14.07
